createdAt,value
2023-01-18T00:02:23.140Z,15.95
2023-01-18T00:05:11.304Z,14.82
2023-01-18T00:07:39.087Z,17.25
2023-01-18T00:13:38.991Z,17.25
2023-01-18T00:16:20.104Z,18.15
2023-01-18T00:18:52.724Z,17.50
2023-01-18T00:21:20.894Z,17.80
2023-01-18T00:23:48.435Z,18.00
2023-01-18T00:26:16.137Z,16.88
2023-01-18T00:28:43.716Z,20.40
2023-01-18T00:31:20.062Z,18.40
2023-01-18T00:33:49.872Z,20.20
2023-01-18T00:36:26.876Z,27.60
2023-01-18T00:38:58.494Z,23.83
2023-01-18T00:41:39.011Z,19.17
2023-01-18T00:44:15.861Z,22.20
2023-01-18T00:46:43.419Z,21.45
2023-01-18T00:49:11.043Z,20.90
2023-01-18T00:51:38.557Z,16.92
2023-01-18T00:54:06.029Z,27.20
2023-01-18T00:56:33.877Z,22.42
2023-01-18T00:59:01.402Z,22.83
2023-01-18T01:01:29.114Z,17.70
2023-01-18T01:04:15.625Z,20.30
2023-01-18T01:07:28.083Z,19.48
2023-01-18T01:09:58.306Z,18.50
2023-01-18T01:12:44.563Z,24.13
2023-01-18T01:15:30.415Z,18.45
2023-01-18T01:18:16.319Z,19.42
2023-01-18T01:23:53.717Z,15.95
2023-01-18T01:26:21.342Z,17.23
2023-01-18T01:28:59.681Z,17.25
2023-01-18T01:31:48.367Z,15.70
2023-01-18T01:34:16.030Z,15.15
2023-01-18T01:36:43.590Z,15.95
2023-01-18T01:39:11.307Z,17.00
2023-01-18T01:41:39.036Z,15.93
2023-01-18T01:44:43.216Z,17.42
2023-01-18T01:47:28.316Z,17.38
2023-01-18T01:50:03.287Z,22.30
2023-01-18T01:52:35.973Z,20.35
2023-01-18T01:55:12.290Z,16.30
2023-01-18T01:57:46.379Z,16.02
2023-01-18T02:00:29.699Z,16.77
2023-01-18T02:03:10.857Z,16.80
2023-01-18T02:05:45.729Z,15.65
2023-01-18T02:08:22.776Z,16.25
2023-01-18T02:10:53.783Z,17.05
2023-01-18T02:13:41.377Z,16.27
2023-01-18T02:17:08.884Z,15.75
2023-01-18T02:20:19.686Z,16.30
2023-01-18T02:23:02.202Z,18.23
2023-01-18T02:26:06.767Z,17.25
2023-01-18T02:28:37.729Z,19.05
2023-01-18T02:31:15.185Z,20.30
2023-01-18T02:33:47.218Z,23.25
2023-01-18T02:36:35.303Z,19.45
2023-01-18T02:39:23.575Z,19.80
2023-01-18T02:42:16.467Z,17.88
2023-01-18T02:45:05.362Z,18.38
2023-01-18T02:47:34.026Z,18.17
2023-01-18T02:50:10.559Z,18.85
2023-01-18T02:52:47.487Z,17.85
2023-01-18T02:55:36.711Z,18.90
2023-01-18T02:58:33.151Z,20.27
2023-01-18T03:01:15.285Z,19.25
2023-01-18T03:03:48.548Z,18.65
2023-01-18T03:06:16.144Z,18.48
2023-01-18T03:08:48.505Z,18.50
2023-01-18T03:11:24.863Z,19.85
2023-01-18T03:14:04.145Z,18.88
2023-01-18T03:16:58.560Z,18.20
2023-01-18T03:19:54.489Z,19.73
2023-01-18T03:22:44.067Z,19.52
2023-01-18T03:25:16.672Z,20.90
2023-01-18T03:28:05.972Z,17.80
2023-01-18T03:30:53.412Z,22.58
2023-01-18T03:33:43.337Z,22.05
2023-01-18T03:36:32.469Z,19.75
2023-01-18T03:39:05.388Z,21.67
2023-01-18T03:41:42.467Z,18.70
2023-01-18T03:44:14.900Z,17.80
2023-01-18T03:46:43.936Z,19.48
2023-01-18T03:49:12.422Z,20.15
2023-01-18T03:52:00.261Z,20.75
2023-01-18T03:54:45.380Z,18.83
2023-01-18T03:57:21.039Z,20.38
2023-01-18T03:59:49.086Z,20.60
2023-01-18T04:02:18.006Z,19.83
2023-01-18T04:04:45.514Z,20.55
2023-01-18T04:07:13.016Z,21.65
2023-01-18T04:09:40.527Z,21.33
2023-01-18T04:12:08.143Z,22.40
2023-01-18T04:14:35.611Z,22.88
2023-01-18T04:17:03.271Z,21.77
2023-01-18T04:19:30.803Z,21.88
2023-01-18T04:21:58.257Z,22.35
2023-01-18T04:24:25.854Z,21.35
2023-01-18T04:26:53.440Z,22.52
2023-01-18T04:29:21.420Z,23.00
2023-01-18T04:31:48.973Z,22.83
2023-01-18T04:34:16.561Z,22.75
2023-01-18T04:36:44.029Z,22.98
2023-01-18T04:39:13.307Z,24.92
2023-01-18T04:41:41.189Z,22.25
2023-01-18T04:44:08.919Z,23.35
2023-01-18T04:46:38.598Z,23.73
2023-01-18T04:49:06.924Z,22.63
2023-01-18T04:51:34.532Z,21.38
2023-01-18T04:54:02.074Z,22.88
2023-01-18T04:56:29.779Z,20.45
2023-01-18T04:58:57.512Z,22.92
2023-01-18T05:01:25.337Z,23.52
2023-01-18T05:03:53.882Z,23.42
2023-01-18T05:06:22.322Z,20.83
2023-01-18T05:08:50.692Z,24.77
2023-01-18T05:11:20.955Z,23.42
2023-01-18T05:13:48.882Z,21.40
2023-01-18T05:16:19.718Z,22.42
2023-01-18T05:18:48.446Z,25.55
2023-01-18T05:21:16.409Z,25.27
2023-01-18T05:23:44.282Z,23.17
2023-01-18T05:26:19.701Z,27.55
2023-01-18T05:28:48.233Z,23.15
2023-01-18T05:31:18.844Z,24.73
2023-01-18T05:33:46.625Z,25.23
2023-01-18T05:36:14.249Z,24.83
2023-01-18T05:38:41.887Z,27.08
2023-01-18T05:41:09.451Z,24.90
2023-01-18T05:43:38.288Z,24.42
2023-01-18T05:46:06.468Z,26.92
2023-01-18T05:48:34.065Z,25.80
2023-01-18T05:51:09.553Z,26.05
2023-01-18T05:53:37.607Z,26.50
2023-01-18T05:56:07.208Z,23.05
2023-01-18T05:58:35.648Z,24.20
2023-01-18T06:01:03.381Z,24.00
2023-01-18T06:03:31.027Z,26.10
2023-01-18T06:05:59.392Z,24.42
2023-01-18T06:08:26.945Z,26.73
2023-01-18T06:10:56.362Z,24.98
2023-01-18T06:13:25.151Z,23.38
2023-01-18T06:16:16.755Z,23.73
2023-01-18T06:18:51.760Z,25.05
2023-01-18T06:21:19.345Z,26.25
2023-01-18T06:23:46.968Z,25.95
2023-01-18T06:26:22.995Z,26.30
2023-01-18T06:28:53.642Z,25.85
2023-01-18T06:31:21.317Z,26.15
2023-01-18T06:33:48.966Z,26.10
2023-01-18T06:36:16.870Z,26.02
2023-01-18T06:38:45.560Z,24.60
2023-01-18T06:41:13.450Z,27.77
2023-01-18T06:43:41.116Z,29.48
2023-01-18T06:46:09.742Z,28.95
2023-01-18T06:48:48.240Z,26.85
2023-01-18T06:51:17.950Z,28.42
2023-01-18T06:53:45.534Z,28.33
2023-01-18T06:56:14.432Z,27.67
2023-01-18T06:58:42.172Z,28.33
2023-01-18T07:01:09.772Z,26.85
2023-01-18T07:03:38.948Z,24.63
2023-01-18T07:06:07.574Z,26.92
2023-01-18T07:08:35.755Z,27.15
2023-01-18T07:11:07.986Z,26.92
2023-01-18T07:13:36.360Z,26.17
2023-01-18T07:16:04.046Z,29.98
2023-01-18T07:18:34.042Z,28.90
2023-01-18T07:21:03.928Z,27.98
2023-01-18T07:23:31.404Z,28.67
2023-01-18T07:26:09.865Z,25.88
2023-01-18T07:28:37.733Z,28.88
2023-01-18T07:31:13.853Z,26.73
2023-01-18T07:33:45.847Z,26.17
2023-01-18T07:36:15.809Z,31.35
2023-01-18T07:38:52.680Z,30.45
2023-01-18T07:41:33.048Z,31.42
2023-01-18T07:44:10.860Z,31.58
2023-01-18T07:46:38.823Z,27.83
2023-01-18T07:52:44.296Z,32.17
2023-01-18T07:55:21.702Z,32.88
2023-01-18T07:57:49.551Z,33.35
2023-01-18T08:00:19.026Z,30.80
2023-01-18T08:02:55.620Z,29.02
2023-01-18T08:05:50.578Z,28.17
2023-01-18T08:08:33.802Z,25.70
2023-01-18T08:12:42.311Z,26.48
2023-01-18T08:14:47.347Z,28.40
2023-01-18T08:17:18.781Z,27.70
2023-01-18T08:20:06.227Z,28.63
2023-01-18T08:22:59.224Z,29.75
2023-01-18T08:26:23.058Z,30.58
2023-01-18T08:33:35.757Z,28.95
2023-01-18T08:37:42.782Z,29.92
2023-01-18T08:40:09.870Z,29.48
2023-01-18T08:42:37.373Z,31.05
2023-01-18T08:45:08.647Z,29.73
2023-01-18T08:47:36.564Z,31.00
2023-01-18T08:50:07.147Z,27.83
2023-01-18T08:52:37.850Z,32.33
2023-01-18T08:55:08.106Z,34.47
2023-01-18T08:57:39.580Z,32.90
2023-01-18T09:00:37.153Z,34.20
2023-01-18T09:03:14.756Z,35.28
2023-01-18T09:06:07.899Z,36.03
2023-01-18T09:12:44.205Z,40.10
2023-01-18T09:16:42.393Z,38.05
2023-01-18T09:19:13.067Z,36.10
2023-01-18T09:22:24.158Z,35.38
2023-01-18T09:33:37.894Z,36.00
2023-01-18T09:44:42.229Z,36.58
2023-01-18T09:47:20.013Z,38.55
2023-01-18T09:50:04.351Z,35.63
2023-01-18T09:53:09.239Z,38.65
2023-01-18T09:59:42.601Z,40.92
2023-01-18T10:02:30.906Z,40.70
2023-01-18T10:05:23.972Z,39.90
2023-01-18T10:08:05.249Z,38.35
2023-01-18T10:21:30.255Z,39.25
2023-01-18T11:07:56.389Z,35.65
2023-01-18T13:02:39.169Z,32.05
2023-01-18T13:05:19.216Z,35.13
2023-01-18T13:11:10.065Z,40.20
2023-01-18T13:14:17.886Z,39.83
2023-01-18T13:17:03.449Z,38.05
2023-01-18T13:19:45.390Z,38.80
2023-01-18T16:59:27.399Z,30.88
2023-01-18T17:50:22.944Z,33.45
2023-01-18T17:52:54.317Z,33.25
2023-01-18T17:55:27.444Z,33.85
2023-01-18T17:57:58.469Z,32.17
2023-01-18T18:00:29.070Z,33.97
2023-01-18T18:03:29.452Z,32.80
2023-01-18T18:06:02.526Z,31.98
2023-01-18T18:08:30.163Z,32.50
2023-01-18T18:11:00.050Z,34.30
2023-01-18T18:13:28.527Z,34.10
2023-01-18T18:15:57.035Z,31.17
2023-01-18T18:18:24.921Z,36.90
2023-01-18T18:21:04.124Z,34.08
2023-01-18T18:23:31.889Z,36.00
2023-01-18T18:26:00.354Z,34.00
2023-01-18T18:28:29.631Z,32.45
2023-01-18T18:30:58.607Z,35.28
2023-01-18T18:33:27.886Z,32.95
2023-01-18T18:35:58.240Z,33.58
2023-01-18T18:38:27.465Z,35.83
2023-01-18T18:40:55.244Z,37.42
2023-01-18T18:43:24.725Z,34.70
2023-01-18T18:45:52.513Z,36.47
2023-01-18T18:48:20.330Z,35.05
2023-01-18T18:50:47.987Z,34.92
2023-01-18T18:53:16.893Z,34.08
2023-01-18T18:55:44.866Z,32.85
2023-01-18T18:58:13.601Z,35.95
2023-01-18T20:56:47.424Z,40.15
2023-01-18T23:20:51.075Z,34.00
2023-01-18T23:23:40.828Z,34.33
2023-01-18T23:31:41.250Z,38.80
2023-01-18T23:34:29.752Z,36.38
2023-01-18T23:37:39.552Z,34.67
2023-01-18T23:43:52.901Z,34.17
2023-01-18T23:46:42.181Z,33.25
2023-01-18T23:49:31.861Z,32.63
2023-01-18T23:52:19.921Z,33.85
2023-01-18T23:54:47.663Z,34.35
2023-01-18T23:57:15.573Z,36.00
